sensor_id;sensor_type;location;lat;lon;timestamp;pressure;altitude;pressure_sealevel;temperature;humidity
16094;BME280;8151;47.824;12.092;2023-01-15T00:00:26;95571.41;;;7.02;62.11
16094;BME280;8151;47.824;12.092;2023-01-15T00:02:55;95571.19;;;7.03;61.95
16094;BME280;8151;47.824;12.092;2023-01-15T00:05:25;95564.97;;;7.04;61.69
16094;BME280;8151;47.824;12.092;2023-01-15T00:07:53;95550.66;;;7.07;61.57
16094;BME280;8151;47.824;12.092;2023-01-15T00:10:21;95554.94;;;7.08;61.66
16094;BME280;8151;47.824;12.092;2023-01-15T00:12:50;95550.66;;;7.07;61.55
16094;BME280;8151;47.824;12.092;2023-01-15T00:15:18;95545.41;;;7.07;61.52
16094;BME280;8151;47.824;12.092;2023-01-15T00:17:46;95548.53;;;7.10;61.27
16094;BME280;8151;47.824;12.092;2023-01-15T00:20:15;95531.75;;;7.12;61.48
16094;BME280;8151;47.824;12.092;2023-01-15T00:22:45;95535.03;;;7.14;61.35
16094;BME280;8151;47.824;12.092;2023-01-15T00:25:13;95537.31;;;7.17;61.14
16094;BME280;8151;47.824;12.092;2023-01-15T00:27:59;95513.50;;;7.18;61.17
16094;BME280;8151;47.824;12.092;2023-01-15T00:30:28;95503.63;;;7.20;61.08
16094;BME280;8151;47.824;12.092;2023-01-15T00:32:56;95501.31;;;7.25;60.89
16094;BME280;8151;47.824;12.092;2023-01-15T00:35:25;95497.69;;;7.26;60.77
16094;BME280;8151;47.824;12.092;2023-01-15T00:37:55;95493.06;;;7.28;60.88
16094;BME280;8151;47.824;12.092;2023-01-15T00:40:23;95499.16;;;7.29;60.85
16094;BME280;8151;47.824;12.092;2023-01-15T00:42:52;95485.81;;;7.30;60.62
16094;BME280;8151;47.824;12.092;2023-01-15T00:45:21;95493.38;;;7.34;60.61
16094;BME280;8151;47.824;12.092;2023-01-15T00:47:50;95486.94;;;7.36;60.58
16094;BME280;8151;47.824;12.092;2023-01-15T00:50:18;95485.63;;;7.40;60.48
16094;BME280;8151;47.824;12.092;2023-01-15T00:52:47;95476.44;;;7.44;60.44
16094;BME280;8151;47.824;12.092;2023-01-15T00:55:16;95458.44;;;7.48;60.27
16094;BME280;8151;47.824;12.092;2023-01-15T00:57:45;95445.78;;;7.52;60.44
16094;BME280;8151;47.824;12.092;2023-01-15T01:00:14;95446.41;;;7.54;59.90
16094;BME280;8151;47.824;12.092;2023-01-15T01:02:42;95433.75;;;7.57;60.01
16094;BME280;8151;47.824;12.092;2023-01-15T01:05:11;95436.84;;;7.61;59.85
16094;BME280;8151;47.824;12.092;2023-01-15T01:07:42;95430.09;;;7.66;59.77
16094;BME280;8151;47.824;12.092;2023-01-15T01:10:11;95428.09;;;7.68;59.70
16094;BME280;8151;47.824;12.092;2023-01-15T01:12:41;95445.19;;;7.73;59.37
16094;BME280;8151;47.824;12.092;2023-01-15T01:15:09;95434.31;;;7.76;59.19
16094;BME280;8151;47.824;12.092;2023-01-15T01:17:38;95413.91;;;7.78;59.26
16094;BME280;8151;47.824;12.092;2023-01-15T01:20:08;95408.25;;;7.81;59.18
16094;BME280;8151;47.824;12.092;2023-01-15T01:22:37;95413.34;;;7.82;59.14
16094;BME280;8151;47.824;12.092;2023-01-15T01:25:06;95409.53;;;7.85;59.01
16094;BME280;8151;47.824;12.092;2023-01-15T01:27:35;95405.59;;;7.89;58.80
16094;BME280;8151;47.824;12.092;2023-01-15T01:30:06;95411.13;;;7.94;58.81
16094;BME280;8151;47.824;12.092;2023-01-15T01:32:34;95404.53;;;7.98;58.62
16094;BME280;8151;47.824;12.092;2023-01-15T01:35:03;95400.91;;;7.99;58.41
16094;BME280;8151;47.824;12.092;2023-01-15T01:37:34;95396.44;;;8.00;58.65
16094;BME280;8151;47.824;12.092;2023-01-15T01:40:04;95406.00;;;8.01;58.60
16094;BME280;8151;47.824;12.092;2023-01-15T01:42:32;95404.00;;;8.03;58.52
16094;BME280;8151;47.824;12.092;2023-01-15T01:45:16;95424.25;;;8.02;58.58
16094;BME280;8151;47.824;12.092;2023-01-15T01:47:45;95406.66;;;8.03;58.53
16094;BME280;8151;47.824;12.092;2023-01-15T01:50:14;95405.00;;;8.02;58.97
16094;BME280;8151;47.824;12.092;2023-01-15T01:52:44;95406.81;;;8.01;58.70
16094;BME280;8151;47.824;12.092;2023-01-15T01:55:17;95402.53;;;8.00;58.70
16094;BME280;8151;47.824;12.092;2023-01-15T01:57:47;95410.09;;;8.03;58.70
16094;BME280;8151;47.824;12.092;2023-01-15T02:00:19;95421.28;;;8.05;58.43
16094;BME280;8151;47.824;12.092;2023-01-15T02:02:50;95399.84;;;8.08;58.30
16094;BME280;8151;47.824;12.092;2023-01-15T02:05:24;95402.94;;;8.12;58.31
16094;BME280;8151;47.824;12.092;2023-01-15T02:07:54;95395.66;;;8.14;58.54
16094;BME280;8151;47.824;12.092;2023-01-15T02:10:23;95393.03;;;8.14;58.26
16094;BME280;8151;47.824;12.092;2023-01-15T02:12:57;95390.06;;;8.17;58.32
16094;BME280;8151;47.824;12.092;2023-01-15T02:15:31;95368.00;;;8.18;58.31
16094;BME280;8151;47.824;12.092;2023-01-15T02:18:07;95365.16;;;8.20;58.04
16094;BME280;8151;47.824;12.092;2023-01-15T02:20:40;95364.00;;;8.22;58.02
16094;BME280;8151;47.824;12.092;2023-01-15T02:23:30;95351.31;;;8.26;57.85
16094;BME280;8151;47.824;12.092;2023-01-15T02:26:18;95345.03;;;8.27;57.55
16094;BME280;8151;47.824;12.092;2023-01-15T02:28:54;95338.13;;;8.26;58.17
16094;BME280;8151;47.824;12.092;2023-01-15T02:31:27;95331.84;;;8.27;58.04
16094;BME280;8151;47.824;12.092;2023-01-15T02:34:00;95320.50;;;8.26;57.78
16094;BME280;8151;47.824;12.092;2023-01-15T02:36:33;95313.41;;;8.27;57.96
16094;BME280;8151;47.824;12.092;2023-01-15T02:39:06;95315.03;;;8.28;57.99
16094;BME280;8151;47.824;12.092;2023-01-15T02:41:40;95289.97;;;8.32;57.76
16094;BME280;8151;47.824;12.092;2023-01-15T02:44:13;95297.69;;;8.34;57.56
16094;BME280;8151;47.824;12.092;2023-01-15T02:46:45;95292.06;;;8.37;57.49
16094;BME280;8151;47.824;12.092;2023-01-15T02:49:17;95284.78;;;8.39;57.74
16094;BME280;8151;47.824;12.092;2023-01-15T02:51:50;95276.69;;;8.40;57.51
16094;BME280;8151;47.824;12.092;2023-01-15T02:54:22;95267.84;;;8.41;57.20
16094;BME280;8151;47.824;12.092;2023-01-15T02:56:52;95290.53;;;8.42;57.29
16094;BME280;8151;47.824;12.092;2023-01-15T02:59:27;95258.56;;;8.45;56.92
16094;BME280;8151;47.824;12.092;2023-01-15T03:01:59;95245.19;;;8.47;57.36
16094;BME280;8151;47.824;12.092;2023-01-15T03:04:32;95245.81;;;8.49;56.99
16094;BME280;8151;47.824;12.092;2023-01-15T03:07:06;95245.00;;;8.48;56.97
16094;BME280;8151;47.824;12.092;2023-01-15T03:09:36;95234.28;;;8.50;56.99
16094;BME280;8151;47.824;12.092;2023-01-15T03:12:09;95236.75;;;8.52;56.69
16094;BME280;8151;47.824;12.092;2023-01-15T03:14:51;95241.84;;;8.53;56.38
16094;BME280;8151;47.824;12.092;2023-01-15T03:17:23;95221.91;;;8.51;56.78
16094;BME280;8151;47.824;12.092;2023-01-15T03:19:57;95230.66;;;8.51;56.70
16094;BME280;8151;47.824;12.092;2023-01-15T03:22:27;95219.72;;;8.54;56.45
16094;BME280;8151;47.824;12.092;2023-01-15T03:25:01;95224.00;;;8.55;56.40
16094;BME280;8151;47.824;12.092;2023-01-15T03:27:30;95216.91;;;8.56;56.70
16094;BME280;8151;47.824;12.092;2023-01-15T03:30:05;95230.72;;;8.58;56.47
16094;BME280;8151;47.824;12.092;2023-01-15T03:32:34;95228.72;;;8.60;56.48
16094;BME280;8151;47.824;12.092;2023-01-15T03:35:05;95220.19;;;8.58;56.22
16094;BME280;8151;47.824;12.092;2023-01-15T03:37:36;95211.47;;;8.57;56.58
16094;BME280;8151;47.824;12.092;2023-01-15T03:40:06;95213.25;;;8.57;55.99
16094;BME280;8151;47.824;12.092;2023-01-15T03:42:43;95210.84;;;8.55;56.39
16094;BME280;8151;47.824;12.092;2023-01-15T03:45:19;95204.72;;;8.55;56.18
16094;BME280;8151;47.824;12.092;2023-01-15T03:47:56;95219.72;;;8.54;56.36
16094;BME280;8151;47.824;12.092;2023-01-15T03:50:32;95209.19;;;8.54;56.02
16094;BME280;8151;47.824;12.092;2023-01-15T03:53:12;95192.56;;;8.54;56.43
16094;BME280;8151;47.824;12.092;2023-01-15T03:55:44;95193.19;;;8.56;55.93
16094;BME280;8151;47.824;12.092;2023-01-15T03:58:20;95196.63;;;8.56;56.10
16094;BME280;8151;47.824;12.092;2023-01-15T04:00:54;95188.53;;;8.58;55.99
16094;BME280;8151;47.824;12.092;2023-01-15T04:03:25;95192.63;;;8.60;56.02
16094;BME280;8151;47.824;12.092;2023-01-15T04:05:56;95186.38;;;8.61;55.94
16094;BME280;8151;47.824;12.092;2023-01-15T04:08:27;95186.38;;;8.61;55.91
16094;BME280;8151;47.824;12.092;2023-01-15T04:11:00;95182.91;;;8.61;55.98
16094;BME280;8151;47.824;12.092;2023-01-15T04:13:39;95155.72;;;8.60;55.96
16094;BME280;8151;47.824;12.092;2023-01-15T04:16:09;95168.09;;;8.60;56.15
16094;BME280;8151;47.824;12.092;2023-01-15T04:18:37;95182.06;;;8.60;56.15
16094;BME280;8151;47.824;12.092;2023-01-15T04:21:05;95174.00;;;8.62;55.88
16094;BME280;8151;47.824;12.092;2023-01-15T04:23:34;95188.19;;;8.61;56.40
16094;BME280;8151;47.824;12.092;2023-01-15T04:26:02;95177.25;;;8.64;55.99
16094;BME280;8151;47.824;12.092;2023-01-15T04:28:31;95183.34;;;8.64;55.86
16094;BME280;8151;47.824;12.092;2023-01-15T04:30:59;95166.53;;;8.65;56.16
16094;BME280;8151;47.824;12.092;2023-01-15T04:33:29;95167.34;;;8.66;55.54
16094;BME280;8151;47.824;12.092;2023-01-15T04:35:58;95156.78;;;8.66;55.64
16094;BME280;8151;47.824;12.092;2023-01-15T04:38:26;95160.06;;;8.68;55.87
16094;BME280;8151;47.824;12.092;2023-01-15T04:40:59;95151.16;;;8.69;55.40
16094;BME280;8151;47.824;12.092;2023-01-15T04:43:45;95157.88;;;8.72;55.64
16094;BME280;8151;47.824;12.092;2023-01-15T04:46:32;95141.88;;;8.73;55.57
16094;BME280;8151;47.824;12.092;2023-01-15T04:49:02;95152.25;;;8.75;55.35
16094;BME280;8151;47.824;12.092;2023-01-15T04:51:31;95136.41;;;8.75;54.93
16094;BME280;8151;47.824;12.092;2023-01-15T04:54:01;95132.94;;;8.74;55.56
16094;BME280;8151;47.824;12.092;2023-01-15T04:56:30;95122.22;;;8.76;55.25
16094;BME280;8151;47.824;12.092;2023-01-15T04:58:59;95121.22;;;8.77;54.94
16094;BME280;8151;47.824;12.092;2023-01-15T05:01:28;95136.03;;;8.78;55.03
16094;BME280;8151;47.824;12.092;2023-01-15T05:03:56;95136.88;;;8.78;54.92
16094;BME280;8151;47.824;12.092;2023-01-15T05:06:26;95131.19;;;8.81;54.96
16094;BME280;8151;47.824;12.092;2023-01-15T05:08:54;95121.47;;;8.82;55.03
16094;BME280;8151;47.824;12.092;2023-01-15T05:11:23;95127.75;;;8.81;54.73
16094;BME280;8151;47.824;12.092;2023-01-15T05:13:52;95126.72;;;8.82;54.52
16094;BME280;8151;47.824;12.092;2023-01-15T05:16:22;95110.09;;;8.81;54.92
16094;BME280;8151;47.824;12.092;2023-01-15T05:18:53;95105.84;;;8.80;54.86
16094;BME280;8151;47.824;12.092;2023-01-15T05:21:23;95102.38;;;8.80;54.70
16094;BME280;8151;47.824;12.092;2023-01-15T05:23:55;95109.47;;;8.79;54.78
16094;BME280;8151;47.824;12.092;2023-01-15T05:26:24;95111.13;;;8.80;54.63
16094;BME280;8151;47.824;12.092;2023-01-15T05:28:53;95104.81;;;8.81;54.52
16094;BME280;8151;47.824;12.092;2023-01-15T05:31:23;95093.47;;;8.81;54.18
16094;BME280;8151;47.824;12.092;2023-01-15T05:33:52;95103.22;;;8.80;54.08
16094;BME280;8151;47.824;12.092;2023-01-15T05:36:23;95104.00;;;8.81;54.13
16094;BME280;8151;47.824;12.092;2023-01-15T05:38:53;95098.56;;;8.82;54.08
16094;BME280;8151;47.824;12.092;2023-01-15T05:41:24;95116.00;;;8.83;54.37
16094;BME280;8151;47.824;12.092;2023-01-15T05:44:10;95125.38;;;8.86;54.39
16094;BME280;8151;47.824;12.092;2023-01-15T05:46:40;95139.38;;;8.86;54.32
16094;BME280;8151;47.824;12.092;2023-01-15T05:49:11;95135.94;;;8.86;54.05
16094;BME280;8151;47.824;12.092;2023-01-15T05:51:40;95135.72;;;8.87;54.30
16094;BME280;8151;47.824;12.092;2023-01-15T05:54:12;95135.72;;;8.87;53.82
16094;BME280;8151;47.824;12.092;2023-01-15T05:56:41;95149.75;;;8.88;53.98
16094;BME280;8151;47.824;12.092;2023-01-15T05:59:12;95137.53;;;8.87;54.30
16094;BME280;8151;47.824;12.092;2023-01-15T06:01:41;95143.63;;;8.87;54.16
16094;BME280;8151;47.824;12.092;2023-01-15T06:04:10;95142.81;;;8.87;54.08
16094;BME280;8151;47.824;12.092;2023-01-15T06:06:40;95149.28;;;8.84;54.06
16094;BME280;8151;47.824;12.092;2023-01-15T06:09:11;95145.63;;;8.85;53.86
16094;BME280;8151;47.824;12.092;2023-01-15T06:11:40;95157.03;;;8.86;54.17
16094;BME280;8151;47.824;12.092;2023-01-15T06:14:09;95160.66;;;8.85;53.89
16094;BME280;8151;47.824;12.092;2023-01-15T06:16:38;95165.31;;;8.83;54.10
16094;BME280;8151;47.824;12.092;2023-01-15T06:19:08;95160.03;;;8.83;53.80
16094;BME280;8151;47.824;12.092;2023-01-15T06:21:37;95144.38;;;8.81;54.21
16094;BME280;8151;47.824;12.092;2023-01-15T06:24:06;95157.75;;;8.80;53.75
16094;BME280;8151;47.824;12.092;2023-01-15T06:26:36;95147.03;;;8.81;53.69
16094;BME280;8151;47.824;12.092;2023-01-15T06:29:05;95145.59;;;8.79;53.96
16094;BME280;8151;47.824;12.092;2023-01-15T06:31:33;95148.41;;;8.77;54.48
16094;BME280;8151;47.824;12.092;2023-01-15T06:34:02;95152.88;;;8.77;54.47
16094;BME280;8151;47.824;12.092;2023-01-15T06:36:30;95158.94;;;8.77;54.13
16094;BME280;8151;47.824;12.092;2023-01-15T06:38:58;95156.66;;;8.74;54.72
16094;BME280;8151;47.824;12.092;2023-01-15T06:41:27;95160.06;;;8.68;54.71
16094;BME280;8151;47.824;12.092;2023-01-15T06:44:16;95165.09;;;8.63;54.91
16094;BME280;8151;47.824;12.092;2023-01-15T06:47:10;95170.28;;;8.56;54.91
16094;BME280;8151;47.824;12.092;2023-01-15T06:49:52;95172.25;;;8.39;55.85
16094;BME280;8151;47.824;12.092;2023-01-15T06:52:21;95179.38;;;8.24;56.38
16094;BME280;8151;47.824;12.092;2023-01-15T06:54:50;95178.56;;;8.08;56.89
16094;BME280;8151;47.824;12.092;2023-01-15T06:57:19;95188.91;;;7.95;57.50
16094;BME280;8151;47.824;12.092;2023-01-15T06:59:49;95179.94;;;7.89;57.96
16094;BME280;8151;47.824;12.092;2023-01-15T07:02:18;95164.38;;;7.95;57.55
16094;BME280;8151;47.824;12.092;2023-01-15T07:04:47;95169.75;;;8.01;57.47
16094;BME280;8151;47.824;12.092;2023-01-15T07:07:17;95174.66;;;8.04;57.07
16094;BME280;8151;47.824;12.092;2023-01-15T07:09:46;95178.28;;;8.03;57.19
16094;BME280;8151;47.824;12.092;2023-01-15T07:12:14;95176.66;;;8.02;57.38
16094;BME280;8151;47.824;12.092;2023-01-15T07:14:43;95197.09;;;8.00;57.65
16094;BME280;8151;47.824;12.092;2023-01-15T07:17:13;95208.97;;;7.96;57.56
16094;BME280;8151;47.824;12.092;2023-01-15T07:19:42;95213.16;;;7.91;58.13
16094;BME280;8151;47.824;12.092;2023-01-15T07:22:11;95214.69;;;7.85;58.17
16094;BME280;8151;47.824;12.092;2023-01-15T07:24:39;95218.66;;;7.81;58.58
16094;BME280;8151;47.824;12.092;2023-01-15T07:27:08;95217.41;;;7.77;59.03
16094;BME280;8151;47.824;12.092;2023-01-15T07:29:36;95214.25;;;7.81;58.78
16094;BME280;8151;47.824;12.092;2023-01-15T07:32:05;95215.53;;;7.85;58.64
16094;BME280;8151;47.824;12.092;2023-01-15T07:34:35;95200.25;;;7.96;58.44
16094;BME280;8151;47.824;12.092;2023-01-15T07:37:03;95178.56;;;8.08;57.94
16094;BME280;8151;47.824;12.092;2023-01-15T07:39:32;95160.66;;;8.19;57.34
16094;BME280;8151;47.824;12.092;2023-01-15T07:42:00;95161.56;;;8.26;56.77
16094;BME280;8151;47.824;12.092;2023-01-15T07:44:46;95130.66;;;8.35;56.41
16094;BME280;8151;47.824;12.092;2023-01-15T07:47:33;95137.66;;;8.42;56.11
16094;BME280;8151;47.824;12.092;2023-01-15T07:50:22;95140.38;;;8.49;55.90
16094;BME280;8151;47.824;12.092;2023-01-15T07:52:51;95143.28;;;8.54;56.06
16094;BME280;8151;47.824;12.092;2023-01-15T07:55:20;95151.63;;;8.58;55.84
16094;BME280;8151;47.824;12.092;2023-01-15T07:57:49;95178.06;;;8.64;55.29
16094;BME280;8151;47.824;12.092;2023-01-15T08:00:20;95193.34;;;8.69;55.29
16094;BME280;8151;47.824;12.092;2023-01-15T08:02:49;95172.50;;;8.74;54.94
16094;BME280;8151;47.824;12.092;2023-01-15T08:05:17;95170.31;;;8.78;55.16
16094;BME280;8151;47.824;12.092;2023-01-15T08:07:47;95177.84;;;8.81;54.87
16094;BME280;8151;47.824;12.092;2023-01-15T08:10:16;95183.41;;;8.86;54.77
16094;BME280;8151;47.824;12.092;2023-01-15T08:12:48;95183.81;;;8.90;54.83
16094;BME280;8151;47.824;12.092;2023-01-15T08:15:38;95180.19;;;8.91;54.51
16094;BME280;8151;47.824;12.092;2023-01-15T08:18:07;95187.09;;;8.92;54.43
16094;BME280;8151;47.824;12.092;2023-01-15T08:20:35;95188.72;;;8.93;54.23
16094;BME280;8151;47.824;12.092;2023-01-15T08:23:05;95191.19;;;8.94;54.58
16094;BME280;8151;47.824;12.092;2023-01-15T08:25:33;95192.63;;;8.97;53.95
16094;BME280;8151;47.824;12.092;2023-01-15T08:28:02;95192.28;;;9.00;54.01
16094;BME280;8151;47.824;12.092;2023-01-15T08:30:30;95199.78;;;9.03;54.63
16094;BME280;8151;47.824;12.092;2023-01-15T08:32:59;95201.25;;;9.05;53.99
16094;BME280;8151;47.824;12.092;2023-01-15T08:35:29;95194.78;;;9.08;54.11
16094;BME280;8151;47.824;12.092;2023-01-15T08:37:57;95188.31;;;9.11;54.12
16094;BME280;8151;47.824;12.092;2023-01-15T08:40:27;95190.41;;;9.15;53.31
16094;BME280;8151;47.824;12.092;2023-01-15T08:42:56;95192.00;;;9.16;53.78
16094;BME280;8151;47.824;12.092;2023-01-15T08:45:24;95176.19;;;9.16;53.42
16094;BME280;8151;47.824;12.092;2023-01-15T08:47:54;95181.47;;;9.16;53.61
16094;BME280;8151;47.824;12.092;2023-01-15T08:50:23;95190.19;;;9.17;53.21
16094;BME280;8151;47.824;12.092;2023-01-15T08:52:51;95198.94;;;9.17;53.55
16094;BME280;8151;47.824;12.092;2023-01-15T08:55:19;95194.66;;;9.16;53.42
16094;BME280;8151;47.824;12.092;2023-01-15T08:57:49;95174.34;;;9.17;53.75
16094;BME280;8151;47.824;12.092;2023-01-15T09:00:18;95168.09;;;9.18;53.97
16094;BME280;8151;47.824;12.092;2023-01-15T09:02:47;95167.91;;;9.19;53.49
16094;BME280;8151;47.824;12.092;2023-01-15T09:05:16;95153.69;;;9.20;53.52
16094;BME280;8151;47.824;12.092;2023-01-15T09:07:45;95176.44;;;9.21;53.40
16094;BME280;8151;47.824;12.092;2023-01-15T09:10:13;95150.69;;;9.23;53.54
16094;BME280;8151;47.824;12.092;2023-01-15T09:12:43;95124.91;;;9.25;53.54
16094;BME280;8151;47.824;12.092;2023-01-15T09:15:13;95112.34;;;9.27;53.15
16094;BME280;8151;47.824;12.092;2023-01-15T09:17:41;95108.50;;;9.30;53.51
16094;BME280;8151;47.824;12.092;2023-01-15T09:20:11;95097.75;;;9.32;53.15
16094;BME280;8151;47.824;12.092;2023-01-15T09:22:40;95087.81;;;9.34;53.43
16094;BME280;8151;47.824;12.092;2023-01-15T09:25:09;95090.47;;;9.34;53.14
16094;BME280;8151;47.824;12.092;2023-01-15T09:27:37;95091.88;;;9.36;52.84
16094;BME280;8151;47.824;12.092;2023-01-15T09:30:07;95082.78;;;9.39;52.99
16094;BME280;8151;47.824;12.092;2023-01-15T09:32:37;95072.84;;;9.41;52.57
16094;BME280;8151;47.824;12.092;2023-01-15T09:35:06;95072.44;;;9.44;52.90
16094;BME280;8151;47.824;12.092;2023-01-15T09:37:35;95072.06;;;9.47;52.43
16094;BME280;8151;47.824;12.092;2023-01-15T09:40:05;95077.16;;;9.49;52.87
16094;BME280;8151;47.824;12.092;2023-01-15T09:42:42;95062.75;;;9.51;52.00
16094;BME280;8151;47.824;12.092;2023-01-15T09:45:17;95060.72;;;9.53;52.77
16094;BME280;8151;47.824;12.092;2023-01-15T09:48:16;95050.59;;;9.57;52.02
16094;BME280;8151;47.824;12.092;2023-01-15T09:51:01;95035.19;;;9.60;52.41
16094;BME280;8151;47.824;12.092;2023-01-15T09:53:48;95029.31;;;9.65;52.03
16094;BME280;8151;47.824;12.092;2023-01-15T09:56:24;95058.41;;;9.72;52.15
16094;BME280;8151;47.824;12.092;2023-01-15T09:58:55;95036.50;;;9.78;51.90
16094;BME280;8151;47.824;12.092;2023-01-15T10:01:28;95027.78;;;9.84;51.65
16094;BME280;8151;47.824;12.092;2023-01-15T10:04:02;95029.66;;;9.90;51.67
16094;BME280;8151;47.824;12.092;2023-01-15T10:06:37;95034.13;;;9.96;51.48
16094;BME280;8151;47.824;12.092;2023-01-15T10:09:13;95024.81;;;10.00;51.25
16094;BME280;8151;47.824;12.092;2023-01-15T10:11:45;95024.59;;;10.02;51.20
16094;BME280;8151;47.824;12.092;2023-01-15T10:14:40;95020.78;;;10.04;51.49
16094;BME280;8151;47.824;12.092;2023-01-15T10:17:20;95010.63;;;10.08;51.23
16094;BME280;8151;47.824;12.092;2023-01-15T10:19:51;95020.97;;;10.10;51.22
16094;BME280;8151;47.824;12.092;2023-01-15T10:22:31;95034.81;;;10.12;50.85
16094;BME280;8151;47.824;12.092;2023-01-15T10:25:11;95030.13;;;10.14;50.74
16094;BME280;8151;47.824;12.092;2023-01-15T10:27:45;95026.50;;;10.15;51.24
16094;BME280;8151;47.824;12.092;2023-01-15T10:30:16;95037.06;;;10.15;51.34
16094;BME280;8151;47.824;12.092;2023-01-15T10:32:51;95049.28;;;10.16;51.31
16094;BME280;8151;47.824;12.092;2023-01-15T10:35:35;95049.06;;;10.17;51.26
16094;BME280;8151;47.824;12.092;2023-01-15T10:38:15;95062.09;;;10.19;51.27
16094;BME280;8151;47.824;12.092;2023-01-15T10:41:11;95071.66;;;10.20;51.34
16094;BME280;8151;47.824;12.092;2023-01-15T10:43:47;95068.41;;;10.18;51.72
16094;BME280;8151;47.824;12.092;2023-01-15T10:46:21;95066.75;;;10.17;51.96
16094;BME280;8151;47.824;12.092;2023-01-15T10:49:03;95070.41;;;10.16;51.52
16094;BME280;8151;47.824;12.092;2023-01-15T10:51:39;95076.72;;;10.15;51.64
16094;BME280;8151;47.824;12.092;2023-01-15T10:54:15;95072.84;;;10.11;51.50
16094;BME280;8151;47.824;12.092;2023-01-15T10:56:52;95075.03;;;10.07;52.23
16094;BME280;8151;47.824;12.092;2023-01-15T10:59:38;95081.75;;;10.03;52.41
16094;BME280;8151;47.824;12.092;2023-01-15T11:02:26;95084.19;;;10.04;52.59
16094;BME280;8151;47.824;12.092;2023-01-15T11:04:55;95089.84;;;10.01;52.70
16094;BME280;8151;47.824;12.092;2023-01-15T11:07:36;95097.16;;;9.99;52.77
16094;BME280;8151;47.824;12.092;2023-01-15T11:10:25;95096.97;;;10.01;52.92
16094;BME280;8151;47.824;12.092;2023-01-15T11:12:55;95204.88;;;9.97;53.18
16094;BME280;8151;47.824;12.092;2023-01-15T11:15:44;95214.97;;;9.87;53.58
16094;BME280;8151;47.824;12.092;2023-01-15T11:18:33;95201.06;;;9.78;54.57
16094;BME280;8151;47.824;12.092;2023-01-15T11:21:21;95208.53;;;9.68;55.54
16094;BME280;8151;47.824;12.092;2023-01-15T11:23:52;95224.25;;;9.55;56.59
16094;BME280;8151;47.824;12.092;2023-01-15T11:26:24;95235.44;;;9.35;57.83
16094;BME280;8151;47.824;12.092;2023-01-15T11:28:53;95236.63;;;9.11;59.47
16094;BME280;8151;47.824;12.092;2023-01-15T11:31:22;95250.50;;;8.83;60.63
16094;BME280;8151;47.824;12.092;2023-01-15T11:34:05;95249.34;;;8.56;61.46
16094;BME280;8151;47.824;12.092;2023-01-15T11:36:33;95266.97;;;8.41;62.42
16094;BME280;8151;47.824;12.092;2023-01-15T11:39:03;95277.78;;;8.31;63.01
16094;BME280;8151;47.824;12.092;2023-01-15T11:41:33;95285.44;;;8.26;63.11
16094;BME280;8151;47.824;12.092;2023-01-15T11:44:19;95302.31;;;8.17;63.73
16094;BME280;8151;47.824;12.092;2023-01-15T11:47:12;95305.84;;;8.09;64.31
16094;BME280;8151;47.824;12.092;2023-01-15T11:49:59;95332.34;;;8.07;64.24
16094;BME280;8151;47.824;12.092;2023-01-15T11:52:47;95340.97;;;8.01;64.28
16094;BME280;8151;47.824;12.092;2023-01-15T11:55:21;95359.75;;;7.98;64.56
16094;BME280;8151;47.824;12.092;2023-01-15T11:57:52;95378.88;;;7.92;64.99
16094;BME280;8151;47.824;12.092;2023-01-15T12:00:23;95392.22;;;7.91;65.12
16094;BME280;8151;47.824;12.092;2023-01-15T12:02:54;95402.28;;;7.87;65.05
16094;BME280;8151;47.824;12.092;2023-01-15T12:05:28;95414.81;;;7.85;65.50
16094;BME280;8151;47.824;12.092;2023-01-15T12:08:01;95426.88;;;7.79;65.89
16094;BME280;8151;47.824;12.092;2023-01-15T12:10:35;95443.19;;;7.75;66.10
16094;BME280;8151;47.824;12.092;2023-01-15T12:13:28;95457.38;;;7.74;65.92
16094;BME280;8151;47.824;12.092;2023-01-15T12:16:02;95469.03;;;7.71;66.15
16094;BME280;8151;47.824;12.092;2023-01-15T12:19:05;95472.53;;;7.72;67.09
16094;BME280;8151;47.824;12.092;2023-01-15T12:24:57;95490.84;;;7.57;67.01
16094;BME280;8151;47.824;12.092;2023-01-15T12:30:31;95498.63;;;7.42;67.27
16094;BME280;8151;47.824;12.092;2023-01-15T12:33:15;95507.34;;;7.34;67.44
16094;BME280;8151;47.824;12.092;2023-01-15T12:35:51;95512.97;;;7.23;67.65
16094;BME280;8151;47.824;12.092;2023-01-15T12:38:33;95522.34;;;7.17;68.13
16094;BME280;8151;47.824;12.092;2023-01-15T12:41:07;95511.84;;;7.09;68.10
16094;BME280;8151;47.824;12.092;2023-01-15T12:43:42;95519.44;;;7.04;67.99
16094;BME280;8151;47.824;12.092;2023-01-15T12:46:32;95526.50;;;7.03;68.09
16094;BME280;8151;47.824;12.092;2023-01-15T12:49:06;95531.59;;;7.05;68.13
16094;BME280;8151;47.824;12.092;2023-01-15T12:51:46;95535.88;;;7.06;68.61
16094;BME280;8151;47.824;12.092;2023-01-15T12:54:20;95539.16;;;7.08;68.42
16094;BME280;8151;47.824;12.092;2023-01-15T12:56:58;95550.66;;;7.07;68.44
16094;BME280;8151;47.824;12.092;2023-01-15T12:59:34;95561.50;;;6.96;68.82
16094;BME280;8151;47.824;12.092;2023-01-15T13:02:13;95554.94;;;6.83;69.40
16094;BME280;8151;47.824;12.092;2023-01-15T13:04:49;95568.59;;;6.79;69.71
16094;BME280;8151;47.824;12.092;2023-01-15T13:07:23;95571.22;;;6.79;69.76
16094;BME280;8151;47.824;12.092;2023-01-15T13:10:00;95571.22;;;6.79;69.90
16094;BME280;8151;47.824;12.092;2023-01-15T13:12:33;95573.69;;;6.80;69.90
16094;BME280;8151;47.824;12.092;2023-01-15T13:15:04;95589.13;;;6.83;70.16
16094;BME280;8151;47.824;12.092;2023-01-15T13:17:41;95589.47;;;6.88;70.20
16094;BME280;8151;47.824;12.092;2023-01-15T13:20:27;95600.66;;;6.90;69.95
16094;BME280;8151;47.824;12.092;2023-01-15T13:23:07;95592.91;;;6.89;70.13
16094;BME280;8151;47.824;12.092;2023-01-15T13:25:55;95595.88;;;6.94;70.65
16094;BME280;8151;47.824;12.092;2023-01-15T13:28:42;95602.97;;;7.02;70.36
16094;BME280;8151;47.824;12.092;2023-01-15T13:31:32;95602.97;;;7.02;70.51
16094;BME280;8151;47.824;12.092;2023-01-15T13:34:06;95599.16;;;7.04;70.37
16094;BME280;8151;47.824;12.092;2023-01-15T13:36:41;95609.19;;;7.01;70.87
16094;BME280;8151;47.824;12.092;2023-01-15T13:39:14;95611.81;;;6.93;71.24
16094;BME280;8151;47.824;12.092;2023-01-15T13:41:48;95611.81;;;6.93;71.36
16094;BME280;8151;47.824;12.092;2023-01-15T13:44:37;95627.09;;;6.89;71.08
16094;BME280;8151;47.824;12.092;2023-01-15T13:47:12;95627.25;;;6.87;71.21